createdAt,value
2023-04-09T00:01:57.161Z,1.50
2023-04-09T00:04:25.498Z,1.33
2023-04-09T00:06:53.753Z,1.40
2023-04-09T00:09:22.011Z,1.20
2023-04-09T00:11:50.418Z,1.13
2023-04-09T00:14:18.708Z,1.10
2023-04-09T00:16:48.277Z,1.40
2023-04-09T00:19:16.613Z,1.23
2023-04-09T00:21:44.920Z,1.30
2023-04-09T00:24:13.172Z,1.20
2023-04-09T00:26:41.526Z,1.30
2023-04-09T00:29:10.008Z,1.60
2023-04-09T00:31:38.194Z,1.10
2023-04-09T00:34:07.840Z,1.20
2023-04-09T00:36:36.244Z,1.20
2023-04-09T00:39:04.593Z,1.30
2023-04-09T00:41:32.886Z,1.40
2023-04-09T00:44:01.153Z,1.27
2023-04-09T00:46:29.418Z,1.30
2023-04-09T00:48:57.711Z,1.40
2023-04-09T00:51:28.675Z,1.35
2023-04-09T00:53:57.302Z,1.65
2023-04-09T00:56:26.429Z,1.30
2023-04-09T00:58:55.640Z,1.20
2023-04-09T01:01:23.935Z,1.60
2023-04-09T01:03:52.637Z,1.73
2023-04-09T01:06:28.999Z,1.70
2023-04-09T01:09:08.162Z,1.30
2023-04-09T01:11:41.295Z,1.50
2023-04-09T01:14:20.544Z,1.35
2023-04-09T01:16:54.781Z,1.60
2023-04-09T01:19:42.512Z,1.38
2023-04-09T01:22:23.533Z,1.40
2023-04-09T01:25:03.355Z,1.65
2023-04-09T01:27:45.307Z,1.50
2023-04-09T01:30:16.853Z,1.38
2023-04-09T01:32:45.850Z,1.40
2023-04-09T01:35:14.862Z,1.58
2023-04-09T01:37:43.620Z,1.50
2023-04-09T01:40:12.576Z,1.45
2023-04-09T01:42:42.279Z,1.63
2023-04-09T01:45:13.378Z,1.42
2023-04-09T01:47:43.588Z,1.60
2023-04-09T01:50:12.497Z,1.60
2023-04-09T01:52:40.828Z,1.50
2023-04-09T01:55:09.708Z,1.50
2023-04-09T01:57:37.900Z,1.60
2023-04-09T02:00:07.780Z,1.40
2023-04-09T02:02:57.823Z,1.58
2023-04-09T02:05:29.416Z,1.50
2023-04-09T02:07:59.200Z,1.40
2023-04-09T02:10:30.985Z,1.42
2023-04-09T02:13:01.534Z,1.50
2023-04-09T02:15:32.137Z,1.35
2023-04-09T02:18:01.842Z,1.52
2023-04-09T02:20:30.676Z,1.52
2023-04-09T02:22:59.022Z,1.33
2023-04-09T02:25:28.374Z,1.58
2023-04-09T02:27:56.606Z,1.40
2023-04-09T02:30:25.102Z,1.50
2023-04-09T02:32:53.379Z,1.63
2023-04-09T02:35:22.971Z,1.60
2023-04-09T02:37:51.391Z,1.58
2023-04-09T02:40:19.789Z,1.35
2023-04-09T02:42:48.101Z,1.40
2023-04-09T02:45:16.407Z,1.60
2023-04-09T02:47:44.813Z,1.63
2023-04-09T02:50:13.467Z,1.30
2023-04-09T02:52:49.608Z,1.67
2023-04-09T02:55:19.356Z,1.60
2023-04-09T02:57:47.661Z,1.58
2023-04-09T03:00:16.378Z,1.67
2023-04-09T03:02:44.799Z,1.45
2023-04-09T03:05:13.173Z,1.80
2023-04-09T03:07:41.573Z,1.50
2023-04-09T03:10:11.939Z,1.77
2023-04-09T03:12:40.192Z,1.80
2023-04-09T03:15:09.150Z,1.42
2023-04-09T03:17:37.434Z,1.40
2023-04-09T03:20:06.933Z,1.50
2023-04-09T03:22:38.895Z,1.60
2023-04-09T03:25:20.832Z,1.70
2023-04-09T03:27:51.839Z,1.65
2023-04-09T03:30:28.456Z,1.52
2023-04-09T03:32:58.168Z,1.55
2023-04-09T03:35:26.669Z,1.65
2023-04-09T03:37:59.655Z,1.50
2023-04-09T03:40:29.327Z,1.40
2023-04-09T03:42:58.024Z,1.50
2023-04-09T03:45:26.594Z,1.75
2023-04-09T03:47:58.202Z,1.45
2023-04-09T03:50:27.424Z,1.65
2023-04-09T03:52:57.667Z,1.73
2023-04-09T03:55:26.309Z,1.35
2023-04-09T03:57:55.968Z,1.70
2023-04-09T04:00:29.348Z,1.60
2023-04-09T04:03:30.854Z,1.90
2023-04-09T04:06:19.906Z,1.75
2023-04-09T04:09:10.752Z,1.80
2023-04-09T04:11:50.836Z,1.50
2023-04-09T04:14:22.027Z,2.08
2023-04-09T04:16:56.357Z,1.65
2023-04-09T04:19:29.326Z,1.70
2023-04-09T04:21:58.070Z,1.77
2023-04-09T04:24:26.408Z,2.00
2023-04-09T04:26:54.678Z,1.90
2023-04-09T04:29:24.852Z,1.88
2023-04-09T04:32:01.735Z,2.03
2023-04-09T04:34:35.792Z,1.80
2023-04-09T04:37:14.264Z,1.80
2023-04-09T04:39:42.799Z,2.03
2023-04-09T04:42:15.572Z,1.80
2023-04-09T04:44:45.717Z,1.90
2023-04-09T04:47:27.786Z,2.00
2023-04-09T04:49:56.149Z,1.42
2023-04-09T04:52:24.722Z,1.73
2023-04-09T04:54:55.204Z,1.70
2023-04-09T04:57:25.290Z,2.05
2023-04-09T04:59:55.714Z,1.77
2023-04-09T05:02:24.120Z,1.85
2023-04-09T05:05:12.411Z,1.95
2023-04-09T05:07:47.329Z,1.70
2023-04-09T05:10:16.432Z,1.80
2023-04-09T05:12:45.256Z,1.70
2023-04-09T05:15:21.376Z,1.70
2023-04-09T05:17:49.707Z,1.88
2023-04-09T05:20:18.570Z,1.90
2023-04-09T05:23:03.328Z,1.85
2023-04-09T05:25:37.344Z,1.77
2023-04-09T05:28:05.867Z,1.90
2023-04-09T05:30:37.262Z,1.90
2023-04-09T05:33:06.395Z,1.80
2023-04-09T05:35:35.196Z,1.90
2023-04-09T05:38:04.882Z,2.08
2023-04-09T05:40:33.419Z,1.88
2023-04-09T05:43:02.215Z,1.90
2023-04-09T05:45:40.788Z,1.65
2023-04-09T05:48:09.748Z,1.77
2023-04-09T05:50:51.534Z,2.00
2023-04-09T05:53:24.800Z,1.80
2023-04-09T05:55:53.100Z,1.85
2023-04-09T05:58:25.442Z,2.00
2023-04-09T06:00:55.595Z,1.70
2023-04-09T06:03:23.947Z,1.80
2023-04-09T06:05:52.338Z,2.03
2023-04-09T06:08:20.630Z,1.98
2023-04-09T06:10:48.861Z,1.88
2023-04-09T06:13:17.156Z,1.50
2023-04-09T06:15:45.480Z,2.00
2023-04-09T06:18:15.554Z,1.80
2023-04-09T06:20:43.744Z,1.92
2023-04-09T06:23:11.993Z,1.70
2023-04-09T06:25:40.309Z,1.90
2023-04-09T06:28:08.659Z,1.80
2023-04-09T06:30:37.397Z,1.83
2023-04-09T06:33:05.709Z,1.85
2023-04-09T06:35:35.804Z,1.63
2023-04-09T06:38:04.176Z,1.90
2023-04-09T06:40:32.516Z,2.17
2023-04-09T06:43:00.803Z,1.98
2023-04-09T06:45:32.617Z,1.88
2023-04-09T06:48:00.938Z,1.77
2023-04-09T06:50:29.257Z,2.03
2023-04-09T06:52:59.024Z,1.92
2023-04-09T06:55:27.982Z,2.00
2023-04-09T06:57:56.310Z,1.80
2023-04-09T07:00:24.556Z,1.63
2023-04-09T07:02:53.518Z,1.80
2023-04-09T07:05:22.898Z,1.75
2023-04-09T07:07:51.142Z,1.80
2023-04-09T07:10:20.848Z,1.60
2023-04-09T07:12:49.223Z,2.10
2023-04-09T07:15:17.583Z,2.25
2023-04-09T07:17:46.016Z,2.08
2023-04-09T07:20:14.468Z,2.00
2023-04-09T07:22:42.757Z,1.70
2023-04-09T07:25:11.304Z,1.83
2023-04-09T07:27:41.050Z,1.80
2023-04-09T07:30:10.630Z,1.75
2023-04-09T07:32:39.020Z,1.83
2023-04-09T07:35:09.651Z,1.80
2023-04-09T07:37:38.012Z,1.83
2023-04-09T07:40:08.422Z,1.95
2023-04-09T07:42:40.586Z,1.90
2023-04-09T07:45:09.838Z,1.92
2023-04-09T07:47:39.092Z,1.90
2023-04-09T07:50:08.740Z,1.80
2023-04-09T07:52:37.298Z,1.88
2023-04-09T07:55:06.274Z,2.00
2023-04-09T07:57:34.596Z,1.75
2023-04-09T08:00:05.089Z,1.77
2023-04-09T08:02:41.498Z,1.70
2023-04-09T08:05:10.751Z,1.90
2023-04-09T08:07:39.081Z,1.67
2023-04-09T08:10:08.384Z,1.58
2023-04-09T08:12:36.639Z,1.70
2023-04-09T08:15:07.036Z,1.65
2023-04-09T08:17:37.048Z,1.85
2023-04-09T08:20:05.683Z,1.73
2023-04-09T08:22:34.591Z,1.65
2023-04-09T08:25:03.035Z,1.30
2023-04-09T08:27:32.612Z,1.77
2023-04-09T08:30:00.958Z,1.80
2023-04-09T08:32:30.624Z,1.90
2023-04-09T08:34:58.984Z,1.98
2023-04-09T08:37:27.414Z,1.70
2023-04-09T08:39:55.882Z,1.70
2023-04-09T08:42:25.264Z,1.80
2023-04-09T08:44:53.535Z,1.80
2023-04-09T08:47:22.754Z,1.90
2023-04-09T08:49:52.427Z,2.10
2023-04-09T08:52:22.142Z,1.95
2023-04-09T08:54:52.438Z,2.08
2023-04-09T08:57:20.788Z,1.63
2023-04-09T08:59:49.024Z,1.65
2023-04-09T09:02:17.379Z,1.65
2023-04-09T09:04:47.250Z,1.77
2023-04-09T09:07:18.071Z,1.80
2023-04-09T09:09:54.410Z,1.70
2023-04-09T09:12:33.636Z,1.60
2023-04-09T09:15:02.259Z,1.70
2023-04-09T09:17:30.593Z,2.05
2023-04-09T09:19:59.239Z,1.70
2023-04-09T09:22:28.942Z,1.77
2023-04-09T09:24:57.498Z,1.88
2023-04-09T09:27:39.329Z,1.40
2023-04-09T09:30:09.243Z,1.67
2023-04-09T09:32:38.161Z,1.60
2023-04-09T09:35:07.797Z,1.67
2023-04-09T09:37:37.462Z,1.65
2023-04-09T09:40:06.744Z,1.92
2023-04-09T09:42:35.026Z,1.92
2023-04-09T09:45:05.311Z,1.60
2023-04-09T09:47:35.456Z,1.50
2023-04-09T09:50:04.424Z,1.50
2023-04-09T09:52:32.761Z,1.55
2023-04-09T09:55:06.502Z,1.85
2023-04-09T09:57:40.408Z,1.65
2023-04-09T10:00:12.985Z,2.10
2023-04-09T10:02:49.091Z,1.63
2023-04-09T10:05:17.608Z,1.73
2023-04-09T10:07:46.685Z,1.70
2023-04-09T10:10:16.717Z,1.77
2023-04-09T10:12:46.341Z,1.65
2023-04-09T10:15:14.846Z,1.80
2023-04-09T10:17:43.301Z,1.80
2023-04-09T10:20:15.642Z,1.88
2023-04-09T10:22:47.194Z,1.83
2023-04-09T10:25:17.958Z,1.63
2023-04-09T10:27:49.214Z,1.65
2023-04-09T10:30:33.042Z,1.58
2023-04-09T10:33:14.588Z,1.95
2023-04-09T10:35:43.870Z,1.67
2023-04-09T10:38:12.480Z,2.20
2023-04-09T10:40:51.624Z,1.42
2023-04-09T10:43:21.260Z,1.90
2023-04-09T10:45:53.430Z,1.50
2023-04-09T10:48:22.778Z,1.63
2023-04-09T10:50:52.949Z,1.52
2023-04-09T10:53:25.594Z,1.65
2023-04-09T10:55:56.317Z,1.75
2023-04-09T10:58:24.599Z,1.33
2023-04-09T11:00:53.253Z,1.67
2023-04-09T11:03:24.112Z,1.50
2023-04-09T11:05:59.948Z,1.60
2023-04-09T11:08:31.137Z,1.92
2023-04-09T11:11:02.300Z,1.50
2023-04-09T11:13:32.198Z,2.10
2023-04-09T11:16:01.438Z,1.50
2023-04-09T11:18:31.313Z,1.58
2023-04-09T11:21:00.854Z,1.83
2023-04-09T11:23:29.775Z,1.40
2023-04-09T11:25:58.157Z,1.80
2023-04-09T11:28:27.982Z,1.70
2023-04-09T11:31:01.945Z,1.73
2023-04-09T11:33:34.347Z,2.42
2023-04-09T11:36:02.841Z,1.65
2023-04-09T11:38:32.726Z,1.80
2023-04-09T11:41:03.359Z,1.98
2023-04-09T11:43:33.163Z,1.98
2023-04-09T11:46:01.781Z,1.70
2023-04-09T11:48:31.352Z,1.98
2023-04-09T11:51:01.742Z,1.90
2023-04-09T11:53:32.190Z,1.90
2023-04-09T11:56:00.695Z,1.80
2023-04-09T11:58:29.214Z,1.90
2023-04-09T12:01:00.190Z,2.30
2023-04-09T12:03:33.855Z,1.80
2023-04-09T12:06:03.804Z,2.38
2023-04-09T12:08:34.601Z,1.95
2023-04-09T12:11:10.634Z,2.20
2023-04-09T12:13:42.858Z,1.77
2023-04-09T12:16:13.181Z,1.95
2023-04-09T12:18:41.622Z,1.80
2023-04-09T12:21:09.994Z,1.88
2023-04-09T12:23:38.305Z,2.40
2023-04-09T12:26:06.641Z,1.98
2023-04-09T12:28:34.914Z,2.05
2023-04-09T12:31:03.654Z,2.03
2023-04-09T12:33:34.116Z,1.80
2023-04-09T12:36:02.462Z,1.80
2023-04-09T12:38:31.136Z,1.92
2023-04-09T12:41:00.096Z,2.28
2023-04-09T12:43:28.493Z,1.70
2023-04-09T12:45:57.146Z,1.98
2023-04-09T12:48:25.650Z,1.60
2023-04-09T12:50:55.396Z,1.90
2023-04-09T12:53:23.658Z,2.40
2023-04-09T12:55:52.292Z,1.80
2023-04-09T12:58:20.846Z,1.83
2023-04-09T13:00:49.724Z,1.98
2023-04-09T13:03:18.033Z,2.00
2023-04-09T13:05:47.181Z,1.90
2023-04-09T13:08:17.272Z,2.33
2023-04-09T13:10:45.542Z,1.90
2023-04-09T13:13:13.907Z,1.92
2023-04-09T13:15:44.785Z,1.80
2023-04-09T13:18:13.930Z,1.80
2023-04-09T13:20:42.263Z,1.70
2023-04-09T13:23:10.573Z,2.20
2023-04-09T13:25:40.229Z,2.13
2023-04-09T13:28:08.640Z,1.85
2023-04-09T13:30:37.089Z,1.98
2023-04-09T13:33:05.621Z,2.08
2023-04-09T13:35:33.953Z,1.90
2023-04-09T13:38:02.196Z,2.00
2023-04-09T13:40:30.508Z,1.92
2023-04-09T13:43:00.206Z,2.20
2023-04-09T13:45:28.576Z,2.63
2023-04-09T13:47:56.938Z,2.30
2023-04-09T13:50:25.337Z,2.35
2023-04-09T13:52:53.656Z,2.15
2023-04-09T13:55:21.954Z,2.28
2023-04-09T13:57:50.272Z,2.00
2023-04-09T14:00:20.760Z,2.20
2023-04-09T14:02:49.275Z,2.20
2023-04-09T14:05:17.712Z,2.05
2023-04-09T14:07:45.987Z,1.90
2023-04-09T14:10:14.291Z,2.03
2023-04-09T14:12:42.626Z,1.90
2023-04-09T14:15:11.608Z,2.35
2023-04-09T14:17:41.592Z,2.50
2023-04-09T14:20:10.495Z,2.60
2023-04-09T14:22:38.975Z,2.67
2023-04-09T14:25:08.174Z,1.90
2023-04-09T14:27:36.572Z,2.47
2023-04-09T14:30:05.450Z,1.98
2023-04-09T14:32:33.739Z,2.80
2023-04-09T14:35:03.572Z,2.47
2023-04-09T14:37:32.006Z,2.13
2023-04-09T14:40:00.324Z,2.10
2023-04-09T14:42:28.694Z,1.85
2023-04-09T14:44:57.045Z,2.00
2023-04-09T14:47:25.421Z,2.10
2023-04-09T14:49:53.777Z,1.83
2023-04-09T14:52:23.474Z,1.98
2023-04-09T14:54:51.930Z,2.33
2023-04-09T14:57:20.335Z,2.30
2023-04-09T14:59:48.643Z,2.17
2023-04-09T15:02:17.434Z,1.75
2023-04-09T15:04:45.940Z,2.33
2023-04-09T15:07:14.417Z,1.80
2023-04-09T15:09:44.040Z,1.70
2023-04-09T15:12:12.278Z,1.80
2023-04-09T15:14:40.624Z,1.85
2023-04-09T15:17:08.892Z,2.05
2023-04-09T15:19:37.345Z,2.10
2023-04-09T15:22:05.922Z,1.60
2023-04-09T15:24:34.255Z,2.10
2023-04-09T15:27:03.970Z,1.85
2023-04-09T15:29:34.038Z,1.95
2023-04-09T15:32:02.483Z,1.95
2023-04-09T15:34:30.787Z,1.83
2023-04-09T15:36:59.146Z,2.05
2023-04-09T15:39:28.598Z,1.67
2023-04-09T15:41:57.645Z,1.75
2023-04-09T15:44:27.521Z,1.73
2023-04-09T15:46:55.992Z,1.85
2023-04-09T15:49:24.480Z,1.95
2023-04-09T15:51:52.816Z,1.90
2023-04-09T15:54:21.235Z,1.95
2023-04-09T15:56:49.942Z,2.17
2023-04-09T15:59:18.956Z,1.77
2023-04-09T16:01:49.154Z,1.88
2023-04-09T16:04:17.643Z,1.90
2023-04-09T16:06:46.283Z,1.90
2023-04-09T16:09:14.683Z,2.00
2023-04-09T16:11:43.008Z,2.00
2023-04-09T16:14:11.386Z,1.85
2023-04-09T16:16:39.713Z,1.70
2023-04-09T16:19:09.443Z,1.92
2023-04-09T16:21:38.832Z,1.80
2023-04-09T16:24:07.431Z,1.70
2023-04-09T16:26:35.799Z,1.60
2023-04-09T16:29:04.288Z,1.85
2023-04-09T16:31:32.730Z,1.98
2023-04-09T16:34:01.122Z,1.70
2023-04-09T16:36:31.452Z,1.90
2023-04-09T16:38:59.793Z,1.67
2023-04-09T16:41:28.102Z,1.90
2023-04-09T16:43:56.419Z,2.20
2023-04-09T16:46:25.001Z,1.77
2023-04-09T16:48:53.642Z,1.98
2023-04-09T16:51:22.166Z,2.00
2023-04-09T16:53:51.797Z,1.90
2023-04-09T16:56:20.174Z,1.98
2023-04-09T16:58:48.532Z,1.83
2023-04-09T17:01:16.948Z,1.90
2023-04-09T17:03:45.511Z,1.77
2023-04-09T17:06:13.977Z,2.10
2023-04-09T17:08:42.287Z,2.00
2023-04-09T17:11:15.852Z,1.80
2023-04-09T17:13:44.070Z,1.75
2023-04-09T17:16:12.580Z,2.10
2023-04-09T17:18:40.863Z,2.08
2023-04-09T17:21:09.123Z,2.13
2023-04-09T17:23:37.820Z,2.00
2023-04-09T17:26:06.564Z,2.45
2023-04-09T17:28:36.197Z,1.95
2023-04-09T17:31:04.710Z,2.35
2023-04-09T17:33:33.022Z,2.10
2023-04-09T17:36:01.555Z,2.30
2023-04-09T17:38:30.906Z,1.98
2023-04-09T17:40:59.278Z,2.08
2023-04-09T17:43:27.509Z,2.50
2023-04-09T17:45:57.402Z,2.33
2023-04-09T17:48:25.889Z,2.10
2023-04-09T17:50:54.110Z,2.40
2023-04-09T17:53:22.676Z,2.10
2023-04-09T17:55:52.013Z,2.00
2023-04-09T17:58:20.615Z,2.22
2023-04-09T18:00:48.996Z,2.35
2023-04-09T18:03:19.132Z,2.22
2023-04-09T18:05:47.702Z,2.50
2023-04-09T18:08:16.044Z,2.03
2023-04-09T18:10:44.320Z,2.42
2023-04-09T18:13:12.566Z,2.45
2023-04-09T18:15:40.854Z,2.50
2023-04-09T18:18:09.068Z,2.03
2023-04-09T18:20:38.541Z,2.38
2023-04-09T18:23:06.669Z,2.20
2023-04-09T18:25:34.868Z,2.30
2023-04-09T18:28:03.171Z,2.22
2023-04-09T18:30:31.440Z,2.20
2023-04-09T18:32:59.674Z,2.20
2023-04-09T18:35:28.125Z,2.28
2023-04-09T18:37:57.714Z,2.35
2023-04-09T18:40:25.909Z,2.08
2023-04-09T18:42:54.022Z,2.05
2023-04-09T18:45:22.470Z,2.05
2023-04-09T18:47:50.764Z,2.08
2023-04-09T18:50:19.298Z,2.50
2023-04-09T18:52:47.791Z,2.47
2023-04-09T18:55:18.259Z,2.33
2023-04-09T18:57:47.321Z,1.95
2023-04-09T19:00:16.219Z,2.40
2023-04-09T19:02:44.651Z,2.08
2023-04-09T19:05:13.385Z,2.20
2023-04-09T19:07:41.682Z,2.20
2023-04-09T19:10:11.086Z,2.17
2023-04-09T19:12:46.716Z,2.30
2023-04-09T19:15:16.124Z,2.28
2023-04-09T19:17:44.892Z,2.45
2023-04-09T19:20:13.643Z,2.42
2023-04-09T19:22:41.966Z,2.45
2023-04-09T19:25:11.150Z,1.95
2023-04-09T19:27:41.163Z,2.25
2023-04-09T19:30:10.571Z,1.95
2023-04-09T19:32:39.240Z,2.00
2023-04-09T19:35:08.847Z,2.20
2023-04-09T19:37:37.108Z,2.20
2023-04-09T19:40:06.151Z,1.83
2023-04-09T19:42:34.659Z,2.35
2023-04-09T19:45:04.460Z,2.30
2023-04-09T19:47:34.837Z,2.33
2023-04-09T19:50:03.295Z,2.33
2023-04-09T19:52:31.834Z,2.40
2023-04-09T19:55:01.059Z,2.08
2023-04-09T19:57:31.682Z,1.95
2023-04-09T19:59:59.986Z,2.30
2023-04-09T20:02:29.912Z,2.15
2023-04-09T20:04:58.304Z,2.40
2023-04-09T20:07:26.644Z,2.05
2023-04-09T20:09:54.904Z,2.08
2023-04-09T20:12:28.189Z,2.47
2023-04-09T20:14:56.743Z,2.08
2023-04-09T20:17:25.141Z,2.15
2023-04-09T20:19:55.667Z,1.98
2023-04-09T20:22:24.015Z,1.95
2023-04-09T20:24:52.413Z,2.13
2023-04-09T20:27:22.138Z,2.30
2023-04-09T20:29:50.703Z,2.20
2023-04-09T20:32:19.404Z,2.05
2023-04-09T20:34:47.682Z,2.55
2023-04-09T20:37:17.355Z,2.17
2023-04-09T20:39:45.684Z,2.63
2023-04-09T20:42:14.035Z,2.38
2023-04-09T20:44:43.316Z,2.40
2023-04-09T20:47:11.989Z,2.15
2023-04-09T20:49:40.255Z,2.00
2023-04-09T20:52:09.460Z,2.30
2023-04-09T20:54:39.412Z,2.10
2023-04-09T20:57:07.611Z,1.95
2023-04-09T20:59:36.018Z,2.00
2023-04-09T21:02:04.539Z,2.25
2023-04-09T21:04:33.081Z,2.28
2023-04-09T21:07:01.332Z,2.30
2023-04-09T21:09:29.678Z,2.03
2023-04-09T21:11:59.327Z,2.65
2023-04-09T21:14:27.565Z,2.22
2023-04-09T21:16:56.074Z,2.20
2023-04-09T21:19:24.584Z,2.00
2023-04-09T21:21:52.837Z,2.30
2023-04-09T21:24:21.056Z,2.10
2023-04-09T21:26:52.079Z,2.20
2023-04-09T21:29:22.298Z,2.38
2023-04-09T21:31:50.800Z,2.38
2023-04-09T21:34:19.153Z,1.92
2023-04-09T21:36:47.690Z,2.10
2023-04-09T21:39:16.077Z,2.15
2023-04-09T21:41:44.335Z,2.20
2023-04-09T21:44:13.428Z,2.20
2023-04-09T21:46:43.287Z,2.33
2023-04-09T21:49:11.793Z,2.42
2023-04-09T21:51:40.384Z,1.85
2023-04-09T21:54:10.818Z,2.40
2023-04-09T21:56:39.860Z,2.38
2023-04-09T21:59:08.161Z,2.40
2023-04-09T22:01:36.563Z,2.60
2023-04-09T22:04:06.411Z,2.30
2023-04-09T22:06:34.781Z,2.20
2023-04-09T22:09:03.286Z,2.20
2023-04-09T22:11:31.821Z,2.53
2023-04-09T22:14:00.053Z,2.50
2023-04-09T22:16:28.611Z,2.03
2023-04-09T22:18:57.691Z,2.40
2023-04-09T22:21:27.714Z,2.55
2023-04-09T22:23:56.154Z,2.25
2023-04-09T22:26:24.425Z,2.13
2023-04-09T22:28:53.184Z,2.55
2023-04-09T22:31:21.993Z,2.47
2023-04-09T22:33:50.601Z,2.47
2023-04-09T22:36:18.988Z,2.38
2023-04-09T22:38:48.663Z,2.28
2023-04-09T22:41:17.696Z,2.47
2023-04-09T22:43:46.107Z,2.40
2023-04-09T22:46:14.433Z,2.13
2023-04-09T22:48:58.903Z,2.83
2023-04-09T22:51:31.557Z,2.35
2023-04-09T22:54:01.495Z,2.15
2023-04-09T22:56:31.696Z,2.25
2023-04-09T22:59:00.345Z,2.50
2023-04-09T23:01:29.509Z,2.45
2023-04-09T23:03:57.836Z,2.60
2023-04-09T23:06:26.689Z,2.67
2023-04-09T23:08:55.221Z,2.22
2023-04-09T23:11:24.983Z,2.72
2023-04-09T23:13:53.223Z,2.17
2023-04-09T23:16:21.988Z,2.13
2023-04-09T23:18:50.341Z,2.35
2023-04-09T23:21:18.641Z,2.38
2023-04-09T23:23:46.913Z,2.33
2023-04-09T23:26:15.593Z,2.35
2023-04-09T23:28:45.230Z,2.50
2023-04-09T23:31:13.531Z,2.63
2023-04-09T23:33:41.874Z,2.40
2023-04-09T23:36:10.794Z,2.70
2023-04-09T23:38:40.360Z,2.42
2023-04-09T23:41:08.819Z,2.33
2023-04-09T23:43:36.989Z,2.35
2023-04-09T23:46:06.915Z,2.63
2023-04-09T23:48:35.222Z,2.35
2023-04-09T23:51:03.554Z,2.70
2023-04-09T23:53:31.774Z,2.47
2023-04-09T23:55:59.964Z,2.97
2023-04-09T23:58:28.265Z,2.35
